Flight Track Log - Related Links

Times and Time Zones

All times are in EDT time to prevent confusion due to time zone crossing. See the EJA727 flight status page for this flight to view local times or setup timezone preferences in your user account.

Time Position Orientation Groundspeed Altitude Reporting Facility
EDT Latitude Longitude Course Direction KTS MPH feet Rate Location/Type
Sat 01:46:05 PM 32.8667 -96.8500 292° West 180 207 1,500  Level Dallas / Fort Worth TRACON
Sat 01:47:41 PM 32.9000 -96.9500 292° West 253 291 7,000 3,500 Climbing Dallas / Fort Worth TRACON
Sat 01:48:41 PM 32.8667 -97.0167 239° Southwest 278 320 10,600 3,472 Climbing Dallas / Fort Worth TRACON
Sat 01:50:39 PM 32.6867 -97.0161 180° South 386 444 17,300 2,494 Climbing Fort Worth Center
Sat 01:51:39 PM 32.5550 -96.9919 171° South 426 490 18,000 350 Climbing Fort Worth Center
Sat 01:52:39 PM 32.4464 -96.9703 170° South 435 501 18,000  Level Fort Worth Center
Sat 01:53:39 PM 32.3147 -96.9464 171° South 435 501 18,000  Level Fort Worth Center
Sat 01:54:39 PM 32.2000 -96.9247 171° South 430 495 18,000  Level Fort Worth Center
Sat 01:55:39 PM 32.0850 -96.9008 170° South 425 489 18,000  Level Fort Worth Center
Sat 01:56:39 PM 31.9700 -96.8844 173° South 425 489 18,000  Level Fort Worth Center
Sat 01:57:39 PM 31.8489 -96.8631 171° South 430 495 18,000  Level Fort Worth Center
Sat 01:58:39 PM 31.7422 -96.8442 171° South 436 502 18,000  Level Fort Worth Center
Sat 01:59:39 PM 31.6233 -96.8253 172° South 436 502 18,000  Level Fort Worth Center
Sat 02:00:39 PM 31.5019 -96.8042 172° South 441 507 18,000  Level Fort Worth Center
Sat 02:01:50 PM 31.3617 -96.7833 173° South 434 499 18,000  Level Houston Center
Sat 02:02:52 PM 31.2397 -96.7642 172° South 435 501 18,000  Level Houston Center
Sat 02:03:54 PM 31.1222 -96.7111 159° South 459 528 18,000  Level Houston Center
Sat 02:04:56 PM 31.0072 -96.6489 155° Southeast 449 517 18,000  Level Houston Center
Sat 02:05:58 PM 30.8728 -96.5744 155° Southeast 450 518 18,000  Level Houston Center
Sat 02:07:00 PM 30.7581 -96.5103 154° Southeast 450 518 18,000 -774 Level Houston Center
Sat 02:08:02 PM 30.6453 -96.4486 155° Southeast 443 510 16,400 -1,500 Descending Houston Center
Sat 02:09:04 PM 30.5364 -96.3881 154° Southeast 432 497 14,900 -1,452 Descending Houston Center
Sat 02:10:06 PM 30.4286 -96.3297 155° Southeast 424 488 13,400 -1,366 Descending Houston Center
Sat 02:11:07 PM 30.3233 -96.2722 155° Southeast 415 478 12,100 -1,259 Descending Houston Center
Sat 02:11:27 PM 30.2808 -96.2506 156° South 401 461 11,700 -968 Descending Houston Center
Sat 02:12:09 PM 30.2214 -96.2167 154° Southeast 401 461 11,100 -327 Descending Houston Center
Sat 02:13:17 PM 30.0983 -96.1525 156° South 391 450 11,100 -48 Level Houston Center
Sat 02:14:13 PM 30.0125 -96.1044 154° Southeast 391 450 11,000 -508 Descending Houston Center
Sat 02:15:15 PM 29.9564 -96.0150 126° Southeast 370 426 10,100 -484 Descending Houston Center
Sat 02:16:17 PM 29.9086 -95.9236 121° Southeast 335 386 10,000 -919 Descending Houston Center
Sat 02:17:19 PM 29.8536 -95.8150 120° Southeast 328 377 8,200 -1,452 Descending Houston Center
Sat 02:18:21 PM 29.8111 -95.7342 121° Southeast 296 341 7,000 -1,016 Descending Houston Center
Sat 02:19:23 PM 29.7703 -95.6533 120° Southeast 292 336 6,100 -484 Descending Houston Center
Sat 02:20:25 PM 29.7322 -95.5797 121° Southeast 277 319 6,000 -48 Descending Houston Center
Sat 02:21:27 PM 29.6969 -95.5119 121° Southeast 255 293 6,000  Level Houston Center
Sat 02:22:29 PM 29.6603 -95.4422 121° Southeast 254 292 6,000  Level Houston Center
Sat 02:23:31 PM 29.6108 -95.3622 125° Southeast 256 295 6,000 -97 Level Houston Center
Sat 02:24:33 PM 29.5619 -95.3067 135° Southeast 252 290 5,800 -1,366 Descending Houston Center
Sat 02:25:34 PM 29.5133 -95.2414 131° Southeast 252 290 3,200 -1,574 Descending Houston Center
Sat 02:26:35 PM 29.5533 -95.1958 45° Northeast 213 245 2,600 -927 Descending Houston Center
Sat 02:27:37 PM 29.5978 -95.2217 333° Northwest 172 198 1,300 -1,073 Descending Houston Center
Sat 02:28:38 PM 29.6264 -95.2589 311° West 138 159 400 -885 Descending Houston Center

Login

Don't have an account? Register now (free) for customized features, flight alerts, and more!